Flight Track Log - Related Links

Times and Time Zones

All times are in EDT time to prevent confusion due to time zone crossing. See the EJA966 flight status page for this flight to view local times or setup timezone preferences in your user account.


Time Position Orientation Groundspeed Altitude Reporting Facility
EDT Latitude Longitude Course Direction KTS MPH feet Rate Location/Type
Mon 06:23:30 AM 41.3167 -70.7514 304° West 217 250 5,400  Level Boston Center
Mon 06:24:30 AM 41.3656 -70.8164 315° West 194 223 11,500 4,200 Climbing Boston Center
Mon 06:25:30 AM 41.4681 -70.8500 346° North 286 329 13,800 2,100 Climbing Boston Center
Mon 06:26:30 AM 41.5319 -70.9481 311° West 356 410 15,700 1,050 Climbing Boston Center
Mon 06:27:00 AM 41.7551 -71.4974 309° West  Level FlightAware Approximate
Mon 06:27:30 AM 41.5900 -71.0883 299° West 383 441 15,900  Level Boston Center
Mon 06:28:00 AM 41.8345 -71.6356 304° West  Level FlightAware Approximate
Mon 06:28:30 AM 41.6308 -71.2069 295° West 393 452 16,000  Level Boston Center
Mon 06:29:31 AM 41.6636 -71.3592 286° West 387 445 16,000  Level Boston Center
Mon 06:30:30 AM 41.6897 -71.4811 286° West 381 438 16,000  Level Boston Center
Mon 06:31:30 AM 41.7181 -71.6169 286° West 376 433 16,000  Level Boston Center
Mon 06:32:30 AM 41.7625 -71.7472 295° West 383 441 16,000  Level Boston Center
Mon 06:33:30 AM 41.8133 -71.8858 296° West 383 441 16,000  Level Boston Center
Mon 06:34:30 AM 41.8328 -71.9969 283° West 383 441 16,000  Level Boston Center
Mon 06:35:30 AM 41.8581 -72.1614 282° West 383 441 16,000  Level Boston Center
Mon 06:36:30 AM 41.8772 -72.2922 281° West 389 448 16,000  Level Boston Center
Mon 06:37:31 AM 41.9022 -72.4456 282° West 389 448 16,000 -350 Level Boston Center
Mon 06:38:30 AM 41.9231 -72.5711 283° West 389 448 15,300 -1,008 Descending Boston Center
Mon 06:39:30 AM 41.9292 -72.7108 273° West 389 448 14,000 -650 Descending Boston Center
Mon 06:40:30 AM 41.8808 -72.8361 243° Southwest 371 427 14,000 -550 Level Boston Center
Mon 06:41:30 AM 41.8281 -72.9639 241° Southwest 380 437 12,900 -1,050 Descending Boston Center
Mon 06:42:30 AM 41.7797 -73.0803 241° Southwest 372 428 11,900 -500 Descending Boston Center
Mon 06:43:30 AM 41.7247 -73.2133 241° Southwest 372 428 11,900  Level Boston Center
Mon 06:44:30 AM 41.6781 -73.3156 239° Southwest 372 428 11,900 -1,005 Level Boston Center
Mon 06:46:59 AM 41.5833 -73.5500 242° Southwest 252 290 8,400 -1,537 Descending New York TRACON
Mon 06:47:53 AM 41.5500 -73.6167 236° Southwest 252 290 6,700 -1,263 Descending New York TRACON
Mon 06:48:53 AM 41.5167 -73.7000 242° Southwest 257 296 6,000 -350 Descending New York TRACON
Mon 06:49:53 AM 41.4667 -73.7833 231° Southwest 258 297 6,000 -550 Level New York TRACON
Mon 06:50:53 AM 41.4167 -73.8500 225° Southwest 267 307 4,900 -1,400 Descending New York TRACON
Mon 06:51:53 AM 41.3500 -73.8000 151° Southeast 281 323 3,200 -1,000 Descending New York TRACON
Mon 06:52:47 AM 41.3000 -73.7500 143° Southeast 270 311 3,000 -105 Descending New York TRACON
Mon 06:53:47 AM 41.2333 -73.7000 151° Southeast 270 311 3,000 -100 Level New York TRACON
Mon 06:54:47 AM 41.1667 -73.7167 191° South 224 258 2,800 -632 Descending New York TRACON
Mon 06:55:41 AM 41.1167 -73.7333 194° South 181 208 1,800 -1,000 Descending New York TRACON
Mon 06:56:41 AM 41.0833 -73.7167 159° South 134 154 900 -900 Descending New York TRACON
Mon 06:58:00 AM 41.0669 -73.7076 255° West  Level Estimated

Login

Don't have an account? Register now (free) for customized features, flight alerts, and more!